sensor_id;sensor_type;location;lat;lon;timestamp;pressure;altitude;pressure_sealevel;temperature;humidity
71384;BME280;67558;52.166;5.004;2023-04-27T00:00:55;102233.78;;;7.16;56.67
71384;BME280;67558;52.166;5.004;2023-04-27T00:03:21;102238.47;;;7.14;56.82
71384;BME280;67558;52.166;5.004;2023-04-27T00:05:46;102234.41;;;7.11;57.08
71384;BME280;67558;52.166;5.004;2023-04-27T00:08:12;102231.97;;;7.10;57.48
71384;BME280;67558;52.166;5.004;2023-04-27T00:10:37;102232.97;;;7.09;57.43
71384;BME280;67558;52.166;5.004;2023-04-27T00:13:03;102219.28;;;6.98;57.26
71384;BME280;67558;52.166;5.004;2023-04-27T00:15:28;102233.41;;;7.06;57.35
71384;BME280;67558;52.166;5.004;2023-04-27T00:17:54;102229.50;;;7.08;57.30
71384;BME280;67558;52.166;5.004;2023-04-27T00:20:19;102236.25;;;7.04;57.50
71384;BME280;67558;52.166;5.004;2023-04-27T00:22:45;102227.47;;;7.04;57.57
71384;BME280;67558;52.166;5.004;2023-04-27T00:25:10;102230.94;;;6.97;57.73
71384;BME280;67558;52.166;5.004;2023-04-27T00:27:36;102230.94;;;6.97;58.17
71384;BME280;67558;52.166;5.004;2023-04-27T00:30:01;102230.97;;;6.91;58.77
71384;BME280;67558;52.166;5.004;2023-04-27T00:32:26;102220.72;;;6.88;58.42
71384;BME280;67558;52.166;5.004;2023-04-27T00:34:52;102222.38;;;6.89;58.88
71384;BME280;67558;52.166;5.004;2023-04-27T00:37:17;102199.03;;;6.71;58.67
71384;BME280;67558;52.166;5.004;2023-04-27T00:39:43;102230.13;;;6.84;58.70
71384;BME280;67558;52.166;5.004;2023-04-27T00:42:09;102236.66;;;6.81;58.73
71384;BME280;67558;52.166;5.004;2023-04-27T00:44:38;102234.44;;;6.78;58.55
71384;BME280;67558;52.166;5.004;2023-04-27T00:47:04;102220.53;;;6.69;58.87
71384;BME280;67558;52.166;5.004;2023-04-27T00:49:30;102232.41;;;6.73;58.96
71384;BME280;67558;52.166;5.004;2023-04-27T00:51:56;102219.69;;;6.69;58.68
71384;BME280;67558;52.166;5.004;2023-04-27T00:54:21;102212.56;;;6.63;58.53
71384;BME280;67558;52.166;5.004;2023-04-27T00:56:48;102207.44;;;6.61;58.77
71384;BME280;67558;52.166;5.004;2023-04-27T00:59:14;102212.94;;;6.66;58.95
71384;BME280;67558;52.166;5.004;2023-04-27T01:01:40;102211.72;;;6.62;58.93
71384;BME280;67558;52.166;5.004;2023-04-27T01:04:05;102208.84;;;6.64;59.05
71384;BME280;67558;52.166;5.004;2023-04-27T01:06:30;102214.97;;;6.57;58.86
71384;BME280;67558;52.166;5.004;2023-04-27T01:08:56;102219.06;;;6.53;58.84
71384;BME280;67558;52.166;5.004;2023-04-27T01:11:21;102214.16;;;6.50;58.91
71384;BME280;67558;52.166;5.004;2023-04-27T01:13:47;102205.97;;;6.45;58.68
71384;BME280;67558;52.166;5.004;2023-04-27T01:16:12;102227.03;;;6.53;58.69
71384;BME280;67558;52.166;5.004;2023-04-27T01:18:38;102205.97;;;6.45;58.87
71384;BME280;67558;52.166;5.004;2023-04-27T01:21:05;102219.06;;;6.47;58.77
71384;BME280;67558;52.166;5.004;2023-04-27T01:23:31;102227.47;;;6.50;58.51
71384;BME280;67558;52.166;5.004;2023-04-27T01:25:56;102232.16;;;6.48;58.85
71384;BME280;67558;52.166;5.004;2023-04-27T01:28:22;102217.84;;;6.43;58.70
71384;BME280;67558;52.166;5.004;2023-04-27T01:30:47;102213.31;;;6.36;58.73
71384;BME280;67558;52.166;5.004;2023-04-27T01:33:12;102217.41;;;6.26;59.28
71384;BME280;67558;52.166;5.004;2023-04-27T01:35:38;102209.03;;;6.29;59.43
71384;BME280;67558;52.166;5.004;2023-04-27T01:38:03;102202.28;;;6.20;59.14
71384;BME280;67558;52.166;5.004;2023-04-27T01:40:28;102204.09;;;6.19;59.18
71384;BME280;67558;52.166;5.004;2023-04-27T01:42:54;102196.34;;;6.18;59.22
71384;BME280;67558;52.166;5.004;2023-04-27T01:45:20;102204.72;;;6.21;59.25
71384;BME280;67558;52.166;5.004;2023-04-27T01:47:45;102207.16;;;6.16;59.54
71384;BME280;67558;52.166;5.004;2023-04-27T01:50:11;102196.53;;;6.09;59.50
71384;BME280;67558;52.166;5.004;2023-04-27T01:52:36;102206.75;;;6.12;59.46
71384;BME280;67558;52.166;5.004;2023-04-27T01:55:02;102198.16;;;6.10;59.73
71384;BME280;67558;52.166;5.004;2023-04-27T01:57:27;102204.31;;;6.11;59.56
71384;BME280;67558;52.166;5.004;2023-04-27T01:59:52;102199.81;;;6.11;59.42
71384;BME280;67558;52.166;5.004;2023-04-27T02:02:18;102188.75;;;6.08;59.54
71384;BME280;67558;52.166;5.004;2023-04-27T02:04:43;102203.47;;;6.10;59.05
71384;BME280;67558;52.166;5.004;2023-04-27T02:07:09;102212.06;;;6.12;59.28
71384;BME280;67558;52.166;5.004;2023-04-27T02:09:35;102205.50;;;6.08;59.15
71384;BME280;67558;52.166;5.004;2023-04-27T02:12:00;102174.19;;;5.90;59.45
71384;BME280;67558;52.166;5.004;2023-04-27T02:14:26;102202.44;;;6.05;59.37
71384;BME280;67558;52.166;5.004;2023-04-27T02:16:52;102197.53;;;6.02;59.40
71384;BME280;67558;52.166;5.004;2023-04-27T02:19:17;102181.72;;;5.87;59.35
71384;BME280;67558;52.166;5.004;2023-04-27T02:21:42;102196.69;;;5.94;59.44
71384;BME280;67558;52.166;5.004;2023-04-27T02:24:08;102194.47;;;5.98;59.77
71384;BME280;67558;52.166;5.004;2023-04-27T02:26:34;102191.38;;;5.94;59.77
71384;BME280;67558;52.166;5.004;2023-04-27T02:28:59;102182.56;;;5.87;60.03
71384;BME280;67558;52.166;5.004;2023-04-27T02:31:25;102184.00;;;5.90;59.91
71384;BME280;67558;52.166;5.004;2023-04-27T02:33:51;102188.06;;;5.92;59.87
71384;BME280;67558;52.166;5.004;2023-04-27T02:36:16;102174.16;;;5.84;60.13
71384;BME280;67558;52.166;5.004;2023-04-27T02:38:41;102176.41;;;5.87;60.42
71384;BME280;67558;52.166;5.004;2023-04-27T02:41:07;102178.06;;;5.88;60.17
71384;BME280;67558;52.166;5.004;2023-04-27T02:43:32;102180.53;;;5.89;60.20
71384;BME280;67558;52.166;5.004;2023-04-27T02:46:01;102178.69;;;5.90;60.48
71384;BME280;67558;52.166;5.004;2023-04-27T02:48:27;102174.00;;;5.92;60.51
71384;BME280;67558;52.166;5.004;2023-04-27T02:50:52;102184.22;;;5.95;60.40
71384;BME280;67558;52.166;5.004;2023-04-27T02:53:18;102180.91;;;5.93;60.32
71384;BME280;67558;52.166;5.004;2023-04-27T02:55:46;102179.31;;;5.92;60.37
71384;BME280;67558;52.166;5.004;2023-04-27T02:58:15;102182.97;;;5.91;60.11
71384;BME280;67558;52.166;5.004;2023-04-27T03:00:41;102176.81;;;5.84;60.39
71384;BME280;67558;52.166;5.004;2023-04-27T03:03:07;102172.31;;;5.78;60.12
71384;BME280;67558;52.166;5.004;2023-04-27T03:05:32;102179.25;;;5.79;60.17
71384;BME280;67558;52.166;5.004;2023-04-27T03:07:58;102183.53;;;5.80;60.49
71384;BME280;67558;52.166;5.004;2023-04-27T03:10:23;102193.13;;;5.81;60.38
71384;BME280;67558;52.166;5.004;2023-04-27T03:12:49;102188.66;;;5.74;60.49
71384;BME280;67558;52.166;5.004;2023-04-27T03:15:14;102197.00;;;5.71;60.36
71384;BME280;67558;52.166;5.004;2023-04-27T03:17:40;102173.06;;;5.58;60.23
71384;BME280;67558;52.166;5.004;2023-04-27T03:20:05;102198.03;;;5.70;60.64
71384;BME280;67558;52.166;5.004;2023-04-27T03:22:34;102184.91;;;5.62;60.33
71384;BME280;67558;52.166;5.004;2023-04-27T03:25:00;102194.34;;;5.71;60.42
71384;BME280;67558;52.166;5.004;2023-04-27T03:27:25;102190.69;;;5.72;60.23
71384;BME280;67558;52.166;5.004;2023-04-27T03:29:51;102193.72;;;5.69;60.57
71384;BME280;67558;52.166;5.004;2023-04-27T03:32:19;102175.53;;;5.66;60.32
71384;BME280;67558;52.166;5.004;2023-04-27T03:34:45;102183.09;;;5.69;60.23
71384;BME280;67558;52.166;5.004;2023-04-27T03:37:11;102180.44;;;5.69;60.08
71384;BME280;67558;52.166;5.004;2023-04-27T03:39:36;102192.13;;;5.75;60.01
71384;BME280;67558;52.166;5.004;2023-04-27T03:42:01;102192.09;;;5.68;60.27
71384;BME280;67558;52.166;5.004;2023-04-27T03:44:27;102192.72;;;5.70;60.30
71384;BME280;67558;52.166;5.004;2023-04-27T03:46:54;102177.13;;;5.61;60.23
71384;BME280;67558;52.166;5.004;2023-04-27T03:49:20;102186.53;;;5.63;60.22
71384;BME280;67558;52.166;5.004;2023-04-27T03:51:45;102192.09;;;5.68;60.21
71384;BME280;67558;52.166;5.004;2023-04-27T03:54:10;102189.44;;;5.68;59.93
71384;BME280;67558;52.166;5.004;2023-04-27T03:56:36;102198.41;;;5.67;60.25
71384;BME280;67558;52.166;5.004;2023-04-27T03:59:03;102185.72;;;5.63;60.42
71384;BME280;67558;52.166;5.004;2023-04-27T04:01:29;102185.13;;;5.67;59.90
71384;BME280;67558;52.166;5.004;2023-04-27T04:03:55;102206.00;;;5.70;60.38
71384;BME280;67558;52.166;5.004;2023-04-27T04:06:20;102208.22;;;5.73;60.15
71384;BME280;67558;52.166;5.004;2023-04-27T04:08:45;102207.22;;;5.74;60.04
71384;BME280;67558;52.166;5.004;2023-04-27T04:11:11;102210.91;;;5.80;60.14
71384;BME280;67558;52.166;5.004;2023-04-27T04:13:36;102176.53;;;5.65;59.68
71384;BME280;67558;52.166;5.004;2023-04-27T04:16:03;102208.91;;;5.89;59.52
71384;BME280;67558;52.166;5.004;2023-04-27T04:18:29;102196.22;;;5.84;59.60
71384;BME280;67558;52.166;5.004;2023-04-27T04:20:54;102207.66;;;5.85;59.48
71384;BME280;67558;52.166;5.004;2023-04-27T04:23:20;102218.50;;;5.83;59.62
71384;BME280;67558;52.166;5.004;2023-04-27T04:25:45;102222.56;;;5.79;59.54
71384;BME280;67558;52.166;5.004;2023-04-27T04:28:12;102223.38;;;5.80;59.77
71384;BME280;67558;52.166;5.004;2023-04-27T04:30:37;102218.03;;;5.73;60.08
71384;BME280;67558;52.166;5.004;2023-04-27T04:33:03;102211.69;;;5.67;60.08
71384;BME280;67558;52.166;5.004;2023-04-27T04:35:29;102221.75;;;5.79;60.20
71384;BME280;67558;52.166;5.004;2023-04-27T04:37:57;102219.66;;;5.74;60.08
71384;BME280;67558;52.166;5.004;2023-04-27T04:40:22;102222.13;;;5.75;60.20
71384;BME280;67558;52.166;5.004;2023-04-27T04:42:48;102229.28;;;5.75;60.35
71384;BME280;67558;52.166;5.004;2023-04-27T04:45:13;102219.66;;;5.74;60.08
71384;BME280;67558;52.166;5.004;2023-04-27T04:47:39;102223.16;;;5.74;60.04
71384;BME280;67558;52.166;5.004;2023-04-27T04:50:06;102227.88;;;5.79;60.16
71384;BME280;67558;52.166;5.004;2023-04-27T04:52:32;102211.06;;;5.72;60.15
71384;BME280;67558;52.166;5.004;2023-04-27T04:54:58;102228.53;;;5.88;60.11
71384;BME280;67558;52.166;5.004;2023-04-27T04:57:23;102230.19;;;5.95;60.37
71384;BME280;67558;52.166;5.004;2023-04-27T04:59:49;102228.59;;;6.01;60.47
71384;BME280;67558;52.166;5.004;2023-04-27T05:02:14;102228.22;;;6.11;60.37
71384;BME280;67558;52.166;5.004;2023-04-27T05:04:40;102236.63;;;6.28;60.65
71384;BME280;67558;52.166;5.004;2023-04-27T05:07:05;102235.22;;;6.39;60.41
71384;BME280;67558;52.166;5.004;2023-04-27T05:09:31;102231.97;;;6.50;60.06
71384;BME280;67558;52.166;5.004;2023-04-27T05:11:56;102229.94;;;6.65;60.17
71384;BME280;67558;52.166;5.004;2023-04-27T05:14:21;102238.53;;;6.81;60.00
71384;BME280;67558;52.166;5.004;2023-04-27T05:16:47;102238.09;;;6.90;59.90
71384;BME280;67558;52.166;5.004;2023-04-27T05:19:13;102245.66;;;7.07;59.68
71384;BME280;67558;52.166;5.004;2023-04-27T05:21:43;102250.34;;;7.25;59.82
71384;BME280;67558;52.166;5.004;2023-04-27T05:24:09;102243.38;;;7.37;59.45
71384;BME280;67558;52.166;5.004;2023-04-27T05:26:35;102240.47;;;7.52;59.51
71384;BME280;67558;52.166;5.004;2023-04-27T05:29:00;102247.16;;;7.68;59.37
71384;BME280;67558;52.166;5.004;2023-04-27T05:31:25;102254.47;;;7.86;59.15
71384;BME280;67558;52.166;5.004;2023-04-27T05:33:51;102254.41;;;7.99;58.78
71384;BME280;67558;52.166;5.004;2023-04-27T05:36:16;102240.41;;;8.10;59.04
71384;BME280;67558;52.166;5.004;2023-04-27T05:38:41;102238.63;;;8.36;58.67
71384;BME280;67558;52.166;5.004;2023-04-27T05:41:07;102239.34;;;8.56;58.51
71384;BME280;67558;52.166;5.004;2023-04-27T05:43:32;102242.88;;;8.75;58.48
71384;BME280;67558;52.166;5.004;2023-04-27T05:45:59;102238.00;;;8.97;58.22
71384;BME280;67558;52.166;5.004;2023-04-27T05:48:25;102239.66;;;9.17;57.78
71384;BME280;67558;52.166;5.004;2023-04-27T05:51:01;102230.75;;;9.41;57.32
71384;BME280;67558;52.166;5.004;2023-04-27T05:53:28;102231.56;;;9.60;57.40
71384;BME280;67558;52.166;5.004;2023-04-27T05:55:53;102227.25;;;9.78;56.90
71384;BME280;67558;52.166;5.004;2023-04-27T05:58:19;102230.25;;;10.00;56.46
71384;BME280;67558;52.166;5.004;2023-04-27T06:00:44;102228.56;;;10.17;56.35
71384;BME280;67558;52.166;5.004;2023-04-27T06:03:10;102231.22;;;10.36;55.89
71384;BME280;67558;52.166;5.004;2023-04-27T06:05:35;102231.25;;;10.48;55.11
71384;BME280;67558;52.166;5.004;2023-04-27T06:08:01;102228.81;;;10.58;54.90
71384;BME280;67558;52.166;5.004;2023-04-27T06:10:26;102210.66;;;10.60;54.56
71384;BME280;67558;52.166;5.004;2023-04-27T06:12:52;102229.69;;;10.82;54.45
71384;BME280;67558;52.166;5.004;2023-04-27T06:15:18;102228.38;;;10.96;53.96
71384;BME280;67558;52.166;5.004;2023-04-27T06:25:22;102243.47;;;11.50;52.52
71384;BME280;67558;52.166;5.004;2023-04-27T06:27:47;102241.91;;;11.65;52.45
71384;BME280;67558;52.166;5.004;2023-04-27T06:30:13;102239.44;;;11.76;51.81
71384;BME280;67558;52.166;5.004;2023-04-27T06:32:38;102234.75;;;11.83;51.19
71384;BME280;67558;52.166;5.004;2023-04-27T06:35:04;102230.53;;;11.99;51.02
71384;BME280;67558;52.166;5.004;2023-04-27T06:37:29;102236.91;;;12.09;50.25
71384;BME280;67558;52.166;5.004;2023-04-27T06:39:54;102234.16;;;12.21;49.92
71384;BME280;67558;52.166;5.004;2023-04-27T06:42:20;102227.94;;;12.33;49.12
71384;BME280;67558;52.166;5.004;2023-04-27T06:44:45;102237.84;;;12.49;49.22
71384;BME280;67558;52.166;5.004;2023-04-27T06:47:11;102223.38;;;12.50;48.83
71384;BME280;67558;52.166;5.004;2023-04-27T06:49:36;102228.91;;;12.60;48.37
71384;BME280;67558;52.166;5.004;2023-04-27T06:52:01;102229.88;;;12.71;48.27
71384;BME280;67558;52.166;5.004;2023-04-27T06:54:27;102213.06;;;12.76;47.82
71384;BME280;67558;52.166;5.004;2023-04-27T06:56:52;102226.44;;;12.93;47.38
71384;BME280;67558;52.166;5.004;2023-04-27T06:59:19;102213.91;;;12.98;47.04
71384;BME280;67558;52.166;5.004;2023-04-27T07:01:44;102216.25;;;13.11;46.38
71384;BME280;67558;52.166;5.004;2023-04-27T07:04:10;102228.03;;;13.27;46.54
71384;BME280;67558;52.166;5.004;2023-04-27T07:06:36;102231.19;;;13.41;46.21
71384;BME280;67558;52.166;5.004;2023-04-27T07:09:01;102223.72;;;13.48;45.34
71384;BME280;67558;52.166;5.004;2023-04-27T07:11:29;102237.31;;;13.59;44.96
71384;BME280;67558;52.166;5.004;2023-04-27T07:13:54;102243.25;;;13.61;44.82
71384;BME280;67558;52.166;5.004;2023-04-27T07:16:20;102241.13;;;13.63;45.16
71384;BME280;67558;52.166;5.004;2023-04-27T07:18:45;102238.00;;;13.71;44.39
71384;BME280;67558;52.166;5.004;2023-04-27T07:21:11;102242.63;;;13.76;44.47
71384;BME280;67558;52.166;5.004;2023-04-27T07:23:37;102229.41;;;13.74;44.31
71384;BME280;67558;52.166;5.004;2023-04-27T07:26:03;102229.53;;;13.84;43.82
71384;BME280;67558;52.166;5.004;2023-04-27T07:28:29;102232.78;;;13.86;43.83
71384;BME280;67558;52.166;5.004;2023-04-27T07:30:54;102236.06;;;13.93;43.41
71384;BME280;67558;52.166;5.004;2023-04-27T07:33:20;102226.66;;;13.91;43.34
71384;BME280;67558;52.166;5.004;2023-04-27T07:35:46;102220.47;;;13.90;43.62
71384;BME280;67558;52.166;5.004;2023-04-27T07:38:12;102221.91;;;13.98;43.87
71384;BME280;67558;52.166;5.004;2023-04-27T07:40:37;102220.56;;;14.01;43.20
71384;BME280;67558;52.166;5.004;2023-04-27T07:43:02;102227.28;;;13.98;42.90
71384;BME280;67558;52.166;5.004;2023-04-27T07:45:29;102235.34;;;13.98;42.74
71384;BME280;67558;52.166;5.004;2023-04-27T07:47:58;102238.03;;;13.98;42.47
71384;BME280;67558;52.166;5.004;2023-04-27T07:50:27;102230.25;;;14.02;42.83
71384;BME280;67558;52.166;5.004;2023-04-27T07:52:53;102234.88;;;14.06;42.36
71384;BME280;67558;52.166;5.004;2023-04-27T07:55:20;102225.63;;;13.97;42.13
71384;BME280;67558;52.166;5.004;2023-04-27T07:57:46;102230.50;;;14.00;42.35
71384;BME280;67558;52.166;5.004;2023-04-27T08:00:12;102229.81;;;14.10;42.30
71384;BME280;67558;52.166;5.004;2023-04-27T08:02:37;102228.53;;;14.18;41.90
71384;BME280;67558;52.166;5.004;2023-04-27T08:05:03;102230.19;;;14.24;41.95
71384;BME280;67558;52.166;5.004;2023-04-27T08:07:28;102241.31;;;14.32;41.80
71384;BME280;67558;52.166;5.004;2023-04-27T08:09:54;102239.22;;;14.40;41.88
71384;BME280;67558;52.166;5.004;2023-04-27T08:12:19;102222.28;;;14.39;41.85
71384;BME280;67558;52.166;5.004;2023-04-27T08:14:45;102234.75;;;14.50;41.66
71384;BME280;67558;52.166;5.004;2023-04-27T08:17:11;102238.84;;;14.58;41.54
71384;BME280;67558;52.166;5.004;2023-04-27T08:19:36;102238.06;;;14.58;41.23
71384;BME280;67558;52.166;5.004;2023-04-27T08:22:02;102231.09;;;14.62;41.23
71384;BME280;67558;52.166;5.004;2023-04-27T08:24:28;102228.66;;;14.60;40.82
71384;BME280;67558;52.166;5.004;2023-04-27T08:26:53;102218.97;;;14.64;40.80
71384;BME280;67558;52.166;5.004;2023-04-27T08:29:18;102218.50;;;14.72;40.57
71384;BME280;67558;52.166;5.004;2023-04-27T08:31:44;102219.59;;;14.71;40.15
71384;BME280;67558;52.166;5.004;2023-04-27T08:34:09;102222.31;;;14.77;40.27
71384;BME280;67558;52.166;5.004;2023-04-27T08:36:34;102219.06;;;14.74;39.79
71384;BME280;67558;52.166;5.004;2023-04-27T08:39:00;102232.78;;;14.73;39.54
71384;BME280;67558;52.166;5.004;2023-04-27T08:41:25;102223.66;;;14.74;39.04
71384;BME280;67558;52.166;5.004;2023-04-27T08:43:53;102224.44;;;14.74;39.15
71384;BME280;67558;52.166;5.004;2023-04-27T08:46:22;102211.47;;;14.66;39.37
71384;BME280;67558;52.166;5.004;2023-04-27T08:48:57;102225.00;;;14.77;39.55
71384;BME280;67558;52.166;5.004;2023-04-27T08:51:22;102207.47;;;14.74;39.71
71384;BME280;67558;52.166;5.004;2023-04-27T08:53:52;102217.50;;;14.84;39.20
71384;BME280;67558;52.166;5.004;2023-04-27T08:56:18;102220.72;;;14.81;39.02
71384;BME280;67558;52.166;5.004;2023-04-27T08:58:44;102226.13;;;14.81;38.55
71384;BME280;67558;52.166;5.004;2023-04-27T09:01:09;102223.13;;;14.77;38.48
71384;BME280;67558;52.166;5.004;2023-04-27T09:03:36;102222.31;;;14.77;38.24
71384;BME280;67558;52.166;5.004;2023-04-27T09:06:05;102221.50;;;14.76;38.56
71384;BME280;67558;52.166;5.004;2023-04-27T09:09:00;102219.31;;;14.73;36.91
71384;BME280;67558;52.166;5.004;2023-04-27T09:11:38;102215.25;;;14.65;37.29
71384;BME280;67558;52.166;5.004;2023-04-27T09:14:18;102218.41;;;14.57;38.23
71384;BME280;67558;52.166;5.004;2023-04-27T09:16:44;102212.53;;;14.65;38.22
71384;BME280;67558;52.166;5.004;2023-04-27T09:19:10;102202.81;;;14.64;38.71
71384;BME280;67558;52.166;5.004;2023-04-27T09:21:36;102214.78;;;14.79;38.56
71384;BME280;67558;52.166;5.004;2023-04-27T09:24:09;102215.38;;;14.86;38.19
71384;BME280;67558;52.166;5.004;2023-04-27T09:26:36;102205.66;;;14.85;38.62
71384;BME280;67558;52.166;5.004;2023-04-27T09:29:02;102208.19;;;15.02;38.43
71384;BME280;67558;52.166;5.004;2023-04-27T09:31:32;102206.88;;;15.04;37.99
71384;BME280;67558;52.166;5.004;2023-04-27T09:33:57;102198.53;;;15.06;38.34
71384;BME280;67558;52.166;5.004;2023-04-27T09:36:23;102212.56;;;15.13;37.60
71384;BME280;67558;52.166;5.004;2023-04-27T09:38:53;102198.78;;;15.09;38.05
71384;BME280;67558;52.166;5.004;2023-04-27T09:41:19;102187.94;;;14.94;37.38
71384;BME280;67558;52.166;5.004;2023-04-27T09:43:46;102192.81;;;14.97;37.55
71384;BME280;67558;52.166;5.004;2023-04-27T09:46:12;102157.13;;;14.80;38.09
71384;BME280;67558;52.166;5.004;2023-04-27T09:48:39;102171.78;;;14.99;37.80
71384;BME280;67558;52.166;5.004;2023-04-27T09:51:06;102199.94;;;15.24;37.41
71384;BME280;67558;52.166;5.004;2023-04-27T09:53:38;102201.06;;;15.28;37.33
71384;BME280;67558;52.166;5.004;2023-04-27T09:58:54;102199.47;;;15.37;36.62
71384;BME280;67558;52.166;5.004;2023-04-27T10:07:09;102202.25;;;15.57;35.15
71384;BME280;67558;52.166;5.004;2023-04-27T10:09:47;102198.47;;;15.59;35.44
71384;BME280;67558;52.166;5.004;2023-04-27T10:12:33;102203.34;;;15.62;36.15
71384;BME280;67558;52.166;5.004;2023-04-27T10:15:13;102190.38;;;15.59;35.85
71384;BME280;67558;52.166;5.004;2023-04-27T10:17:46;102196.88;;;15.68;35.47
71384;BME280;67558;52.166;5.004;2023-04-27T10:20:12;102185.03;;;15.74;34.65
71384;BME280;67558;52.166;5.004;2023-04-27T10:22:44;102198.81;;;15.77;34.46
71384;BME280;67558;52.166;5.004;2023-04-27T10:25:15;102196.94;;;15.78;34.46
71384;BME280;67558;52.166;5.004;2023-04-27T10:27:41;102201.78;;;15.76;34.34
71384;BME280;67558;52.166;5.004;2023-04-27T10:30:09;102190.16;;;15.70;34.40
71384;BME280;67558;52.166;5.004;2023-04-27T10:32:35;102200.94;;;15.70;34.44
71384;BME280;67558;52.166;5.004;2023-04-27T10:35:04;102194.72;;;15.70;34.15
71384;BME280;67558;52.166;5.004;2023-04-27T10:37:41;102188.25;;;15.71;33.84
71384;BME280;67558;52.166;5.004;2023-04-27T10:40:08;102190.44;;;15.74;34.16
71384;BME280;67558;52.166;5.004;2023-04-27T10:42:44;102174.19;;;15.59;34.39
71384;BME280;67558;52.166;5.004;2023-04-27T10:45:11;102184.97;;;15.59;34.40
71384;BME280;67558;52.166;5.004;2023-04-27T10:47:42;102189.03;;;15.61;34.28
71384;BME280;67558;52.166;5.004;2023-04-27T10:50:09;102165.81;;;15.50;34.17
71384;BME280;67558;52.166;5.004;2023-04-27T10:52:42;102130.97;;;15.33;34.04
71384;BME280;67558;52.166;5.004;2023-04-27T10:55:15;102178.78;;;15.63;33.39
71384;BME280;67558;52.166;5.004;2023-04-27T10:57:48;102188.22;;;15.66;34.04
71384;BME280;67558;52.166;5.004;2023-04-27T11:00:21;102177.19;;;15.62;34.28
71384;BME280;67558;52.166;5.004;2023-04-27T11:02:46;102165.03;;;15.60;34.32
71384;BME280;67558;52.166;5.004;2023-04-27T11:05:23;102154.75;;;15.51;33.77
71384;BME280;67558;52.166;5.004;2023-04-27T11:07:50;102163.91;;;15.50;34.04
71384;BME280;67558;52.166;5.004;2023-04-27T11:10:19;102157.72;;;15.50;33.83
71384;BME280;67558;52.166;5.004;2023-04-27T11:12:45;102148.25;;;15.37;33.98
71384;BME280;67558;52.166;5.004;2023-04-27T11:15:11;102159.31;;;15.41;33.88
71384;BME280;67558;52.166;5.004;2023-04-27T11:17:36;102138.25;;;15.32;34.08
71384;BME280;67558;52.166;5.004;2023-04-27T11:20:03;102126.66;;;15.32;33.90
71384;BME280;67558;52.166;5.004;2023-04-27T11:22:31;102130.16;;;15.32;34.19
71384;BME280;67558;52.166;5.004;2023-04-27T11:24:56;102145.53;;;15.37;34.49
71384;BME280;67558;52.166;5.004;2023-04-27T11:27:22;102130.72;;;15.34;34.31
71384;BME280;67558;52.166;5.004;2023-04-27T11:29:49;102145.03;;;15.45;34.49
71384;BME280;67558;52.166;5.004;2023-04-27T11:32:22;102115.88;;;15.37;34.34
71384;BME280;67558;52.166;5.004;2023-04-27T11:34:52;102108.34;;;15.34;34.32
71384;BME280;67558;52.166;5.004;2023-04-27T11:37:22;102126.72;;;15.47;34.38
71384;BME280;67558;52.166;5.004;2023-04-27T11:39:49;102115.66;;;15.49;34.52
71384;BME280;67558;52.166;5.004;2023-04-27T11:42:18;102129.44;;;15.57;34.46
71384;BME280;67558;52.166;5.004;2023-04-27T11:47:17;102121.34;;;15.57;33.71
71384;BME280;67558;52.166;5.004;2023-04-27T11:49:47;102115.91;;;15.47;34.16
71384;BME280;67558;52.166;5.004;2023-04-27T11:52:13;102092.44;;;15.48;34.39
71384;BME280;67558;52.166;5.004;2023-04-27T11:54:46;102113.25;;;15.63;33.18
71384;BME280;67558;52.166;5.004;2023-04-27T11:57:11;102113.53;;;15.66;33.64
71384;BME280;67558;52.166;5.004;2023-04-27T11:59:37;102115.41;;;15.66;34.07
71384;BME280;67558;52.166;5.004;2023-04-27T12:02:03;102118.94;;;15.71;34.29
71384;BME280;67558;52.166;5.004;2023-04-27T12:04:28;102104.94;;;15.74;33.98
71384;BME280;67558;52.166;5.004;2023-04-27T12:06:54;102115.72;;;15.80;33.60
71384;BME280;67558;52.166;5.004;2023-04-27T12:09:20;102117.34;;;15.81;33.54
71384;BME280;67558;52.166;5.004;2023-04-27T12:11:46;102103.03;;;15.80;33.57
71384;BME280;67558;52.166;5.004;2023-04-27T12:14:12;102113.31;;;15.88;33.52
71384;BME280;67558;52.166;5.004;2023-04-27T12:16:37;102096.84;;;15.85;33.40
71384;BME280;67558;52.166;5.004;2023-04-27T12:19:02;102100.06;;;15.87;33.23
71384;BME280;67558;52.166;5.004;2023-04-27T12:21:28;102096.31;;;15.88;32.99
71384;BME280;67558;52.166;5.004;2023-04-27T12:23:53;102070.94;;;15.79;33.21
71384;BME280;67558;52.166;5.004;2023-04-27T12:26:20;102092.78;;;15.97;32.86
71384;BME280;67558;52.166;5.004;2023-04-27T12:28:45;102078.25;;;15.99;32.76
71384;BME280;67558;52.166;5.004;2023-04-27T12:31:14;102083.34;;;16.00;33.08
71384;BME280;67558;52.166;5.004;2023-04-27T12:33:41;102052.59;;;15.86;32.90
71384;BME280;67558;52.166;5.004;2023-04-27T12:36:07;102087.38;;;16.13;33.15
71384;BME280;67558;52.166;5.004;2023-04-27T12:38:34;102086.06;;;16.15;32.82
71384;BME280;67558;52.166;5.004;2023-04-27T12:41:00;102072.81;;;16.09;32.87
71384;BME280;67558;52.166;5.004;2023-04-27T12:43:26;102072.56;;;16.15;32.56
71384;BME280;67558;52.166;5.004;2023-04-27T12:45:53;102071.72;;;16.15;32.41
71384;BME280;67558;52.166;5.004;2023-04-27T12:48:18;102069.59;;;16.12;32.53
71384;BME280;67558;52.166;5.004;2023-04-27T12:50:43;102077.13;;;16.20;32.11
71384;BME280;67558;52.166;5.004;2023-04-27T12:53:09;102063.38;;;16.11;32.07
71384;BME280;67558;52.166;5.004;2023-04-27T12:55:34;102060.38;;;16.13;32.31
71384;BME280;67558;52.166;5.004;2023-04-27T12:58:01;102057.41;;;16.20;32.50
71384;BME280;67558;52.166;5.004;2023-04-27T13:00:27;102059.56;;;16.33;32.59
71384;BME280;67558;52.166;5.004;2023-04-27T13:02:53;102064.38;;;16.46;32.77
71384;BME280;67558;52.166;5.004;2023-04-27T13:05:19;102054.63;;;16.55;32.92
71384;BME280;67558;52.166;5.004;2023-04-27T13:07:46;102072.38;;;16.77;32.13
71384;BME280;67558;52.166;5.004;2023-04-27T13:10:11;102047.53;;;16.75;32.12